Time;durP1;ratioP1;P1;durP2;ratioP2;P2;SDS_P1;SDS_P2;PMS_P1;PMS_P2;Temp;Humidity;BMP_temperature;BMP_pressure;BME280_temperature;BME280_humidity;BME280_pressure;Samples;Min_cycle;Max_cycle;Signal;HPM_P1;HPM_P2
2021/12/15 00:01:49;;;;;;;12.77;7.40;;;10.50;62.00;;;;;;5013508;28;20017;-66
2021/12/15 00:04:15;;;;;;;11.15;7.57;;;10.40;61.90;;;;;;5013582;28;20041;-66
2021/12/15 00:06:41;;;;;;;9.80;6.88;;;10.40;61.90;;;;;;5013547;28;20533;-69
2021/12/15 00:09:10;;;;;;;11.43;7.22;;;10.40;61.80;;;;;;5013480;28;20097;-77
2021/12/15 00:11:37;;;;;;;11.57;7.43;;;10.40;61.90;;;;;;4995781;28;20029;-66
2021/12/15 00:14:13;;;;;;;12.05;7.93;;;10.40;61.90;;;;;;4995990;28;20032;-72
2021/12/15 00:16:39;;;;;;;10.77;7.55;;;10.40;62.40;;;;;;5013505;28;20498;-64
2021/12/15 00:19:06;;;;;;;16.45;7.57;;;10.40;62.30;;;;;;5013410;28;20029;-69
2021/12/15 00:21:32;;;;;;;11.63;7.88;;;10.40;62.20;;;;;;5013456;28;20108;-69
2021/12/15 00:23:58;;;;;;;11.82;7.90;;;10.40;62.40;;;;;;5013134;28;20479;-65
2021/12/15 00:26:25;;;;;;;11.98;7.50;;;10.40;62.40;;;;;;5013445;28;20037;-64
2021/12/15 00:28:51;;;;;;;10.82;7.13;;;10.40;62.50;;;;;;5013345;28;20064;-66
2021/12/15 00:31:18;;;;;;;12.07;7.50;;;10.40;62.10;;;;;;5013446;28;20038;-65
2021/12/15 00:33:47;;;;;;;10.73;7.50;;;10.30;61.90;;;;;;5013261;28;20014;-67
2021/12/15 00:36:14;;;;;;;13.13;7.70;;;10.30;62.40;;;;;;5013323;28;20479;-65
2021/12/15 00:38:41;;;;;;;12.07;7.90;;;10.30;61.90;;;;;;5013002;28;20108;-64
2021/12/15 00:41:08;;;;;;;11.07;7.80;;;10.20;61.90;;;;;;5013203;28;20033;-68
2021/12/15 00:43:34;;;;;;;12.98;7.63;;;10.20;62.20;;;;;;5013057;28;20030;-66
2021/12/15 00:46:00;;;;;;;11.35;7.45;;;10.20;62.10;;;;;;4995557;28;20045;-65
2021/12/15 00:48:26;;;;;;;13.43;7.97;;;10.10;62.10;;;;;;5012208;28;20038;-76
2021/12/15 00:50:54;;;;;;;11.00;6.90;;;10.10;62.30;;;;;;5012771;28;20046;-63
2021/12/15 00:53:20;;;;;;;10.35;6.75;;;10.10;62.50;;;;;;4995808;28;20042;-67
2021/12/15 00:55:46;;;;;;;10.90;6.78;;;10.00;62.60;;;;;;5013010;28;20052;-65
2021/12/15 00:58:13;;;;;;;10.10;6.85;;;10.00;62.60;;;;;;5012911;28;20069;-73
2021/12/15 01:00:54;;;;;;;10.23;6.25;;;10.00;62.80;;;;;;5012919;28;20021;-73
2021/12/15 01:03:22;;;;;;;11.13;6.78;;;10.00;63.00;;;;;;5013214;28;20372;-71
2021/12/15 01:05:56;;;;;;;9.02;6.03;;;10.00;62.90;;;;;;5012983;28;20037;-67
2021/12/15 01:08:26;;;;;;;10.98;6.45;;;9.90;63.60;;;;;;5012437;28;20026;-64
2021/12/15 01:22:02;;;;;;;9.18;6.13;;;9.80;64.20;;;;;;5013120;28;20045;-64
2021/12/15 01:24:28;;;;;;;9.80;6.25;;;9.80;64.20;;;;;;5012565;28;20034;-68
2021/12/15 01:26:54;;;;;;;11.57;6.50;;;9.80;64.30;;;;;;5013051;28;20509;-66
2021/12/15 01:29:20;;;;;;;11.55;7.47;;;9.80;64.40;;;;;;5013453;28;20471;-65
2021/12/15 01:31:45;;;;;;;11.35;6.85;;;9.80;64.40;;;;;;5013321;28;20119;-65
2021/12/15 01:34:11;;;;;;;11.23;6.72;;;9.70;64.40;;;;;;5013236;28;20025;-69
2021/12/15 01:36:37;;;;;;;9.52;6.25;;;9.70;64.60;;;;;;5012775;28;20037;-64
2021/12/15 01:39:04;;;;;;;9.43;6.72;;;9.70;64.80;;;;;;5012539;28;20112;-65
2021/12/15 01:41:30;;;;;;;10.25;6.60;;;9.70;64.80;;;;;;5012550;28;20090;-66
2021/12/15 01:46:59;;;;;;;9.07;6.03;;;9.60;64.70;;;;;;5012759;28;20431;-67
2021/12/15 01:49:37;;;;;;;9.60;6.22;;;9.60;64.80;;;;;;5011994;28;20547;-66
2021/12/15 01:52:33;;;;;;;9.75;6.85;;;9.60;64.80;;;;;;5012159;28;20046;-65
2021/12/15 01:55:11;;;;;;;10.63;6.82;;;9.60;65.10;;;;;;5010870;28;20038;-64
2021/12/15 01:57:39;;;;;;;12.55;7.53;;;9.60;65.10;;;;;;5012222;28;20022;-65
2021/12/15 02:00:18;;;;;;;11.55;6.95;;;9.50;65.10;;;;;;5012185;28;20030;-67
2021/12/15 02:02:46;;;;;;;10.18;6.63;;;9.50;65.20;;;;;;5012418;28;20022;-65
2021/12/15 02:05:12;;;;;;;10.10;6.55;;;9.50;65.20;;;;;;5012169;28;20064;-64
2021/12/15 02:07:41;;;;;;;12.07;6.68;;;9.50;65.00;;;;;;5012384;28;20410;-65
2021/12/15 02:10:08;;;;;;;10.23;6.10;;;9.40;65.10;;;;;;4994535;28;20030;-66
2021/12/15 02:12:38;;;;;;;9.13;6.35;;;9.40;65.00;;;;;;4994647;28;20045;-64
2021/12/15 02:15:14;;;;;;;10.30;5.85;;;9.40;65.20;;;;;;5011406;28;20479;-64
2021/12/15 02:17:41;;;;;;;7.68;5.45;;;9.40;65.10;;;;;;4994520;28;20387;-66
2021/12/15 02:20:11;;;;;;;8.15;5.68;;;9.40;65.00;;;;;;5013970;28;20087;-65
2021/12/15 02:22:37;;;;;;;8.88;5.68;;;9.40;65.00;;;;;;5015793;28;20026;-63
2021/12/15 02:25:09;;;;;;;9.32;6.15;;;9.40;65.10;;;;;;5015812;28;20037;-67
2021/12/15 02:27:35;;;;;;;8.45;5.38;;;9.40;64.80;;;;;;5015507;28;20040;-66
2021/12/15 02:31:06;;;;;;;9.63;5.93;;;9.40;64.80;;;;;;5015573;28;20109;-65
2021/12/15 02:38:35;;;;;;;8.40;4.82;;;9.30;64.60;;;;;;5016038;28;20514;-67
2021/12/15 02:41:08;;;;;;;8.55;5.47;;;9.30;64.50;;;;;;5015648;28;20038;-66
2021/12/15 02:43:36;;;;;;;8.15;5.03;;;9.30;64.60;;;;;;5015155;28;20030;-66
2021/12/15 02:46:03;;;;;;;8.65;5.50;;;9.30;65.30;;;;;;5015774;28;20026;-66
2021/12/15 02:48:29;;;;;;;11.23;5.78;;;9.20;64.60;;;;;;5015450;28;20037;-65
2021/12/15 02:50:55;;;;;;;9.98;5.78;;;9.20;64.70;;;;;;5015063;28;20053;-64
2021/12/15 02:53:21;;;;;;;9.73;5.70;;;9.20;64.90;;;;;;5015199;28;20029;-68
2021/12/15 02:55:47;;;;;;;8.85;5.38;;;9.10;64.80;;;;;;5015644;28;20181;-70
2021/12/15 02:58:13;;;;;;;7.88;5.10;;;9.10;65.00;;;;;;5015013;28;20101;-69
2021/12/15 03:00:55;;;;;;;7.28;4.75;;;9.10;65.10;;;;;;5015241;28;20503;-71
2021/12/15 03:04:07;;;;;;;7.50;5.15;;;9.20;65.20;;;;;;5014988;28;20041;-71
2021/12/15 03:06:17;;;;;;;8.40;5.10;;;9.10;64.90;;;;;;5014555;28;20064;-69
2021/12/15 03:16:42;;;;;;;7.63;4.90;;;9.10;64.90;;;;;;5015030;28;20052;-69
2021/12/15 03:19:09;;;;;;;10.15;5.22;;;9.10;65.80;;;;;;5014705;28;20022;-64
2021/12/15 03:21:35;;;;;;;7.80;4.93;;;9.10;65.40;;;;;;5014530;28;20030;-66
2021/12/15 03:24:14;;;;;;;8.95;4.53;;;9.10;65.50;;;;;;5014489;28;20056;-63
2021/12/15 03:26:50;;;;;;;8.93;5.32;;;9.10;64.80;;;;;;5014551;28;20129;-64
2021/12/15 03:37:27;;;;;;;7.93;5.22;;;9.10;65.40;;;;;;5014338;28;20530;-64
2021/12/15 03:40:01;;;;;;;8.18;5.45;;;9.10;65.20;;;;;;5014158;28;20069;-63
2021/12/15 03:42:32;;;;;;;8.55;5.35;;;9.10;64.90;;;;;;5014413;28;20029;-64
2021/12/15 03:44:58;;;;;;;9.23;5.40;;;9.00;65.30;;;;;;5014236;28;20049;-63
2021/12/15 03:47:30;;;;;;;9.52;5.07;;;9.10;65.50;;;;;;5014039;28;20045;-64
2021/12/15 03:49:57;;;;;;;8.73;5.55;;;9.00;65.50;;;;;;5014007;28;20097;-63
2021/12/15 03:52:23;;;;;;;8.07;5.28;;;9.00;65.50;;;;;;5013644;28;20052;-63
2021/12/15 03:54:49;;;;;;;8.38;5.50;;;9.00;65.50;;;;;;5013891;28;20022;-64
2021/12/15 03:57:16;;;;;;;8.70;5.80;;;9.00;65.70;;;;;;5013722;28;20025;-64
2021/12/15 03:59:44;;;;;;;8.27;5.13;;;9.00;65.60;;;;;;5013820;28;20034;-64
2021/12/15 04:02:13;;;;;;;8.65;5.38;;;9.00;65.80;;;;;;5013783;28;20071;-65
2021/12/15 04:04:40;;;;;;;9.35;6.25;;;9.00;65.80;;;;;;5013612;28;20033;-63
2021/12/15 04:07:07;;;;;;;8.88;5.47;;;8.90;65.80;;;;;;5013504;28;20054;-63
2021/12/15 04:09:33;;;;;;;11.27;5.80;;;8.90;66.10;;;;;;5013731;28;20026;-63
2021/12/15 04:12:00;;;;;;;9.80;5.82;;;8.90;66.10;;;;;;5013514;28;20036;-66
2021/12/15 04:14:34;;;;;;;9.00;5.60;;;8.90;66.10;;;;;;5013301;28;20038;-64
2021/12/15 04:17:03;;;;;;;10.05;5.45;;;8.80;66.00;;;;;;5013644;28;20018;-65
2021/12/15 04:19:32;;;;;;;10.82;5.70;;;8.80;66.20;;;;;;5013298;28;20048;-63
2021/12/15 04:21:59;;;;;;;9.50;5.28;;;8.80;66.30;;;;;;5013337;28;20014;-64
2021/12/15 04:24:27;;;;;;;8.73;5.65;;;8.80;66.50;;;;;;5013271;28;20398;-64
2021/12/15 04:26:54;;;;;;;10.45;6.25;;;8.80;66.60;;;;;;5013220;28;20482;-64
2021/12/15 04:29:21;;;;;;;10.45;6.00;;;8.80;66.50;;;;;;5013297;28;20108;-65
2021/12/15 04:32:02;;;;;;;10.77;6.20;;;8.70;66.50;;;;;;5012989;28;20025;-64
2021/12/15 04:34:28;;;;;;;10.45;5.72;;;8.70;66.70;;;;;;5013331;28;20493;-64
2021/12/15 04:36:54;;;;;;;9.70;5.55;;;8.70;66.70;;;;;;5013038;28;20021;-64
2021/12/15 04:39:26;;;;;;;9.85;6.07;;;8.70;66.80;;;;;;5012995;28;20113;-66
2021/12/15 04:41:53;;;;;;;10.75;6.60;;;8.70;67.20;;;;;;5012562;28;20022;-64
2021/12/15 04:44:24;;;;;;;10.15;6.60;;;8.60;67.00;;;;;;5012991;28;20487;-64
2021/12/15 04:47:00;;;;;;;8.55;5.97;;;8.60;67.20;;;;;;5013130;28;20459;-64
2021/12/15 04:49:30;;;;;;;13.23;6.50;;;8.60;67.20;;;;;;5013062;28;20076;-65
2021/12/15 04:51:56;;;;;;;13.02;7.22;;;8.50;67.30;;;;;;5012796;28;20153;-64
2021/12/15 04:54:23;;;;;;;10.30;6.68;;;8.50;67.50;;;;;;5013067;28;20029;-63
2021/12/15 04:56:49;;;;;;;11.20;7.05;;;8.50;67.60;;;;;;5012888;28;20026;-64
2021/12/15 04:59:15;;;;;;;13.25;7.35;;;8.40;67.90;;;;;;5012700;28;20172;-68
2021/12/15 05:01:42;;;;;;;10.50;7.32;;;8.40;67.90;;;;;;5012999;28;20496;-67
2021/12/15 05:04:08;;;;;;;14.02;7.00;;;8.30;68.20;;;;;;5012981;28;20112;-67
2021/12/15 05:06:37;;;;;;;11.35;6.95;;;8.20;68.60;;;;;;5012971;28;20061;-65
2021/12/15 05:09:06;;;;;;;15.95;7.40;;;8.10;68.90;;;;;;5012841;28;20117;-66
2021/12/15 05:11:33;;;;;;;12.43;7.07;;;8.10;69.10;;;;;;5012848;28;20033;-68
2021/12/15 05:13:59;;;;;;;12.45;7.57;;;8.10;69.40;;;;;;4995322;28;20030;-66
2021/12/15 05:16:25;;;;;;;17.25;8.98;;;8.10;69.50;;;;;;5012929;28;20026;-72
2021/12/15 05:18:51;;;;;;;15.98;8.10;;;8.10;69.60;;;;;;4995247;28;20030;-67
2021/12/15 05:21:18;;;;;;;13.25;8.43;;;8.20;69.90;;;;;;4995353;28;20057;-65
2021/12/15 05:23:47;;;;;;;15.13;7.78;;;8.20;69.80;;;;;;4995157;28;20064;-64
2021/12/15 05:26:13;;;;;;;14.77;8.48;;;8.20;70.00;;;;;;5012782;28;20564;-65
2021/12/15 05:28:39;;;;;;;17.88;8.45;;;8.30;69.60;;;;;;5014499;28;20033;-65
2021/12/15 05:31:05;;;;;;;11.85;7.65;;;8.30;69.50;;;;;;5016059;28;20045;-68
2021/12/15 05:33:31;;;;;;;14.05;7.80;;;8.30;69.40;;;;;;5016174;28;20034;-68
2021/12/15 05:35:57;;;;;;;12.68;7.70;;;8.30;69.40;;;;;;5012985;28;20084;-64
2021/12/15 05:38:24;;;;;;;12.57;7.85;;;8.30;69.50;;;;;;5012401;28;20061;-64
2021/12/15 05:40:50;;;;;;;14.02;7.40;;;8.30;69.50;;;;;;5012363;28;20038;-64
2021/12/15 05:43:16;;;;;;;11.45;7.43;;;8.30;70.30;;;;;;5012450;28;20033;-64
2021/12/15 05:45:43;;;;;;;15.30;7.60;;;8.30;69.60;;;;;;5012364;28;20078;-66
2021/12/15 05:48:12;;;;;;;20.20;8.35;;;8.30;69.70;;;;;;5012520;28;20453;-67
2021/12/15 05:50:39;;;;;;;14.25;8.35;;;8.20;69.80;;;;;;5012107;28;20041;-64
2021/12/15 05:53:06;;;;;;;16.95;8.88;;;8.20;70.00;;;;;;5012490;28;20494;-65
2021/12/15 05:55:33;;;;;;;16.23;8.82;;;8.20;70.00;;;;;;5016114;28;20108;-64
2021/12/15 05:57:59;;;;;;;12.20;7.82;;;8.20;70.00;;;;;;5015952;28;20464;-64
2021/12/15 06:00:30;;;;;;;12.23;7.10;;;8.10;70.00;;;;;;5016011;28;20101;-66
2021/12/15 06:02:58;;;;;;;12.75;7.85;;;8.10;70.00;;;;;;5015910;28;20026;-65
2021/12/15 06:05:24;;;;;;;12.23;7.35;;;8.10;70.00;;;;;;5015854;28;20065;-66
2021/12/15 06:07:50;;;;;;;11.95;7.68;;;8.20;70.00;;;;;;5015865;28;20535;-66
2021/12/15 06:10:21;;;;;;;17.40;7.50;;;8.10;70.00;;;;;;5015820;28;20140;-64
2021/12/15 06:12:49;;;;;;;18.08;7.68;;;8.20;70.10;;;;;;5015921;28;20049;-64
2021/12/15 06:15:21;;;;;;;13.90;7.47;;;8.20;70.00;;;;;;4998292;28;20040;-63
2021/12/15 06:17:57;;;;;;;15.88;8.60;;;8.20;70.10;;;;;;5015632;28;20030;-65
2021/12/15 06:20:24;;;;;;;14.20;8.35;;;8.20;70.10;;;;;;5015604;28;20040;-64
2021/12/15 06:22:53;;;;;;;18.15;8.70;;;8.20;70.30;;;;;;4997811;28;20109;-65
2021/12/15 06:25:19;;;;;;;12.57;7.70;;;8.20;70.30;;;;;;5015212;28;20428;-64
2021/12/15 06:27:45;;;;;;;16.38;8.73;;;8.10;70.40;;;;;;5015254;28;20030;-64
2021/12/15 06:30:11;;;;;;;14.07;7.95;;;8.10;70.70;;;;;;4997554;28;20030;-64
2021/12/15 06:32:37;;;;;;;19.75;7.90;;;8.10;70.80;;;;;;5015243;28;20037;-67
2021/12/15 06:35:06;;;;;;;16.02;7.93;;;8.10;70.80;;;;;;5015379;28;20475;-71
2021/12/15 06:37:32;;;;;;;12.82;8.10;;;8.10;70.90;;;;;;5015086;28;20391;-72
2021/12/15 06:39:58;;;;;;;16.65;8.90;;;8.10;70.90;;;;;;5015230;28;20076;-76
2021/12/15 06:42:24;;;;;;;16.77;9.90;;;8.10;70.80;;;;;;5015192;28;20030;-64
2021/12/15 06:44:55;;;;;;;15.80;9.02;;;8.20;70.90;;;;;;5015045;28;20059;-72
2021/12/15 07:00:35;;;;;;;14.98;8.73;;;8.20;71.30;;;;;;4999515;28;20204;-73
2021/12/15 07:03:03;;;;;;;13.70;7.47;;;8.20;71.00;;;;;;4994990;28;20520;-69
2021/12/15 07:05:32;;;;;;;21.58;8.40;;;8.20;70.90;;;;;;4994535;28;20069;-68
2021/12/15 07:08:00;;;;;;;20.65;8.25;;;8.20;71.20;;;;;;4995316;28;20023;-66
2021/12/15 07:10:30;;;;;;;19.45;8.00;;;8.30;71.40;;;;;;4998115;28;20046;-71
2021/12/15 07:12:57;;;;;;;16.20;8.75;;;8.30;70.70;;;;;;4995261;28;20091;-66
2021/12/15 07:15:23;;;;;;;13.70;7.95;;;8.30;70.80;;;;;;5014674;28;20476;-77
2021/12/15 07:18:00;;;;;;;13.38;7.80;;;8.40;70.70;;;;;;5014713;28;20030;-66
2021/12/15 07:20:47;;;;;;;15.32;7.60;;;8.50;70.70;;;;;;5012385;28;20143;-68
2021/12/15 07:23:18;;;;;;;19.40;8.73;;;8.60;70.40;;;;;;5012504;28;20400;-74
2021/12/15 07:25:46;;;;;;;20.33;9.13;;;8.60;70.40;;;;;;4994830;28;20061;-63
2021/12/15 07:28:13;;;;;;;11.75;8.02;;;8.70;70.20;;;;;;4994259;28;20037;-74
2021/12/15 07:30:40;;;;;;;16.42;8.43;;;8.70;70.20;;;;;;4994526;28;20022;-63
2021/12/15 07:33:08;;;;;;;16.58;8.25;;;8.80;70.10;;;;;;5001990;28;20026;-63
2021/12/15 07:35:36;;;;;;;18.05;8.80;;;8.90;69.90;;;;;;5003427;28;20022;-64
2021/12/15 07:38:07;;;;;;;17.38;8.52;;;9.00;69.80;;;;;;5010684;28;20026;-63
2021/12/15 07:40:33;;;;;;;37.15;10.18;;;9.00;69.50;;;;;;5013454;28;20040;-63
2021/12/15 07:45:35;;;;;;;23.50;8.55;;;9.10;69.30;;;;;;5001577;28;20057;-67
2021/12/15 07:48:03;;;;;;;25.88;9.13;;;9.10;69.30;;;;;;4994422;28;20141;-76
2021/12/15 07:50:30;;;;;;;14.90;8.10;;;9.10;69.20;;;;;;4994292;28;20037;-75
2021/12/15 07:52:57;;;;;;;16.73;7.35;;;9.10;69.20;;;;;;4994111;28;20043;-76
2021/12/15 07:55:25;;;;;;;14.38;7.43;;;9.10;68.90;;;;;;4994241;28;20030;-68
2021/12/15 07:57:53;;;;;;;16.33;7.50;;;9.00;68.70;;;;;;4976952;28;20031;-64
2021/12/15 08:00:20;;;;;;;14.02;7.63;;;9.00;68.90;;;;;;4994008;28;20046;-64
2021/12/15 08:02:46;;;;;;;13.25;8.05;;;9.00;68.90;;;;;;4994075;28;20045;-65
2021/12/15 08:05:13;;;;;;;14.13;7.72;;;9.00;69.10;;;;;;4996503;28;20124;-72
2021/12/15 08:07:40;;;;;;;15.38;7.40;;;9.00;69.00;;;;;;4972199;28;20026;-83
2021/12/15 08:10:11;;;;;;;13.38;7.60;;;9.00;69.20;;;;;;5015346;28;20058;-78
2021/12/15 08:12:51;;;;;;;12.00;6.70;;;9.00;68.90;;;;;;5013261;28;20048;-76
2021/12/15 08:15:17;;;;;;;12.27;6.60;;;9.10;68.90;;;;;;5015244;28;20037;-66
2021/12/15 08:17:50;;;;;;;11.23;6.30;;;9.10;68.50;;;;;;5013945;28;20113;-88
2021/12/15 08:20:21;;;;;;;10.77;6.13;;;9.10;68.00;;;;;;5014975;28;20033;-74
2021/12/15 08:22:48;;;;;;;12.70;6.40;;;9.10;68.20;;;;;;5014655;28;20534;-67
2021/12/15 08:25:18;;;;;;;17.65;7.18;;;9.10;67.90;;;;;;5013924;28;20041;-66
2021/12/15 08:27:46;;;;;;;12.20;5.95;;;9.20;67.80;;;;;;5013565;28;20022;-69
2021/12/15 08:30:20;;;;;;;15.85;6.60;;;9.20;67.40;;;;;;5013160;28;20041;-73
2021/12/15 08:32:50;;;;;;;16.50;6.40;;;9.20;67.40;;;;;;5012993;28;20029;-64
2021/12/15 08:35:20;;;;;;;12.75;6.47;;;9.30;67.30;;;;;;5013158;28;20372;-75
2021/12/15 08:38:01;;;;;;;12.55;6.55;;;9.30;67.20;;;;;;5013117;28;20063;-63
2021/12/15 08:40:27;;;;;;;11.82;6.20;;;9.40;67.10;;;;;;5013266;28;20030;-70
2021/12/15 08:42:56;;;;;;;14.63;6.93;;;9.40;67.00;;;;;;5012750;28;20177;-64
2021/12/15 08:45:22;;;;;;;9.68;6.35;;;9.50;67.10;;;;;;5012915;28;20103;-63
2021/12/15 08:47:50;;;;;;;13.95;6.75;;;9.50;66.90;;;;;;5013274;28;20380;-66
2021/12/15 08:50:22;;;;;;;13.93;6.35;;;9.60;66.90;;;;;;5012700;28;20057;-65
2021/12/15 08:52:48;;;;;;;10.50;6.07;;;9.70;66.90;;;;;;5012414;28;20045;-64
2021/12/15 08:55:15;;;;;;;10.95;5.75;;;9.70;66.50;;;;;;5013227;28;20129;-70
2021/12/15 08:57:47;;;;;;;13.75;5.57;;;9.70;66.50;;;;;;5013978;28;20459;-64
2021/12/15 09:00:18;;;;;;;12.20;5.45;;;9.80;66.20;;;;;;5013919;28;20137;-77
2021/12/15 09:02:46;;;;;;;12.38;5.30;;;9.90;65.40;;;;;;5012064;28;20407;-63
2021/12/15 09:05:21;;;;;;;12.18;5.43;;;9.90;65.50;;;;;;5012703;28;20472;-70
2021/12/15 09:08:00;;;;;;;9.45;4.45;;;10.00;63.80;;;;;;4996494;28;20030;-66
2021/12/15 09:10:31;;;;;;;10.15;5.35;;;10.00;64.30;;;;;;5012731;28;20123;-64
2021/12/15 09:12:58;;;;;;;13.60;5.47;;;10.00;63.90;;;;;;4979440;28;20471;-68
2021/12/15 09:15:26;;;;;;;11.38;6.43;;;10.10;64.00;;;;;;5013125;28;20077;-79
2021/12/15 09:17:52;;;;;;;15.77;6.88;;;10.20;63.70;;;;;;5012722;28;20109;-74
2021/12/15 09:20:23;;;;;;;15.07;6.63;;;10.30;63.60;;;;;;5012829;28;20026;-64
2021/12/15 09:22:50;;;;;;;13.60;7.40;;;10.40;63.40;;;;;;5013550;28;20026;-68
2021/12/15 09:25:16;;;;;;;15.43;7.50;;;10.50;63.60;;;;;;4995551;28;20124;-73
2021/12/15 09:27:44;;;;;;;13.52;6.57;;;10.60;63.50;;;;;;5012749;28;20033;-71
2021/12/15 09:30:15;;;;;;;15.30;6.78;;;10.70;63.00;;;;;;5017512;28;20431;-64
2021/12/15 09:32:41;;;;;;;11.20;6.43;;;10.80;63.10;;;;;;5018891;28;20030;-65
2021/12/15 09:35:08;;;;;;;12.27;6.82;;;10.90;63.20;;;;;;5018300;28;20029;-64
2021/12/15 09:37:34;;;;;;;13.90;7.03;;;11.00;63.10;;;;;;5017053;28;20029;-63
2021/12/15 09:40:00;;;;;;;12.77;6.75;;;11.10;62.90;;;;;;5017593;28;20113;-63
2021/12/15 09:42:33;;;;;;;10.25;6.18;;;11.10;62.10;;;;;;5017123;28;20077;-63
2021/12/15 09:45:15;;;;;;;10.00;5.85;;;11.20;62.90;;;;;;5017010;28;20045;-64
2021/12/15 09:48:04;;;;;;;12.35;6.90;;;11.30;61.80;;;;;;5017113;28;20052;-66
2021/12/15 10:17:23;;;;;;;10.10;5.80;;;11.90;59.80;;;;;;5002176;28;20045;-75
2021/12/15 10:18:12;;;;;;;9.88;5.68;;;12.10;59.50;;;;;;5015900;28;20041;-65
2021/12/15 10:20:38;;;;;;;10.30;5.53;;;12.20;60.00;;;;;;5015663;28;20464;-67
2021/12/15 10:23:11;;;;;;;7.63;5.47;;;12.30;59.00;;;;;;5015602;28;20022;-64
2021/12/15 10:25:45;;;;;;;13.93;5.75;;;12.30;59.00;;;;;;5015790;28;20047;-64
2021/12/15 10:28:18;;;;;;;11.55;5.68;;;12.40;59.20;;;;;;5014469;28;20038;-69
2021/12/15 10:31:01;;;;;;;10.40;5.47;;;12.50;58.90;;;;;;5014926;28;20077;-65
2021/12/15 10:33:48;;;;;;;10.00;5.40;;;12.60;59.60;;;;;;5015285;28;20110;-68
2021/12/15 10:36:17;;;;;;;7.60;4.38;;;12.70;59.10;;;;;;5016768;28;20101;-65
2021/12/15 10:38:51;;;;;;;10.35;5.20;;;12.70;58.40;;;;;;5016147;28;20030;-63
2021/12/15 10:41:23;;;;;;;8.80;4.32;;;12.80;58.40;;;;;;5018010;28;20507;-80
2021/12/15 10:43:57;;;;;;;10.35;4.88;;;12.80;58.50;;;;;;5023097;28;20495;-76
2021/12/15 10:46:39;;;;;;;7.47;4.38;;;12.90;58.30;;;;;;5015525;28;20053;-67
2021/12/15 10:49:10;;;;;;;10.40;4.20;;;13.00;58.70;;;;;;5015376;28;20372;-77
2021/12/15 10:52:01;;;;;;;10.20;5.30;;;13.00;58.20;;;;;;5014904;28;20057;-65
2021/12/15 10:54:51;;;;;;;11.50;4.70;;;13.10;58.40;;;;;;5014720;28;20509;-75
2021/12/15 10:57:18;;;;;;;16.48;5.90;;;13.20;58.10;;;;;;4998451;28;20030;-63
2021/12/15 10:59:48;;;;;;;12.90;5.32;;;13.30;58.00;;;;;;5017026;28;20030;-64
2021/12/15 11:02:32;;;;;;;15.60;7.05;;;13.40;58.00;;;;;;5002104;28;20033;-65
2021/12/15 11:05:12;;;;;;;11.25;6.32;;;13.50;57.90;;;;;;5021174;28;20056;-64
2021/12/15 11:07:39;;;;;;;14.15;6.13;;;13.60;58.00;;;;;;4999970;28;20097;-66
2021/12/15 11:10:10;;;;;;;10.27;6.00;;;13.70;57.80;;;;;;5016546;28;20113;-65
2021/12/15 11:12:38;;;;;;;9.05;4.68;;;13.70;57.60;;;;;;5016016;28;20360;-65
2021/12/15 11:15:23;;;;;;;8.10;4.53;;;13.80;57.30;;;;;;5015519;28;20428;-67
2021/12/15 11:18:02;;;;;;;10.65;4.85;;;13.90;57.50;;;;;;5014553;28;20076;-71
2021/12/15 11:20:37;;;;;;;6.55;4.15;;;14.00;57.30;;;;;;5015390;28;20057;-67
2021/12/15 11:23:04;;;;;;;13.15;5.13;;;14.00;57.10;;;;;;5014968;28;20116;-63
2021/12/15 11:25:49;;;;;;;9.23;4.65;;;14.00;56.90;;;;;;5014599;28;20057;-69
2021/12/15 11:28:30;;;;;;;16.92;5.50;;;14.10;57.10;;;;;;5015033;28;20029;-65
2021/12/15 11:31:16;;;;;;;13.38;5.13;;;14.20;56.90;;;;;;5016366;28;20058;-63
2021/12/15 11:33:54;;;;;;;9.55;4.65;;;14.30;56.90;;;;;;5014971;28;20130;-68
2021/12/15 11:36:32;;;;;;;8.27;4.45;;;14.40;57.00;;;;;;5000253;28;20053;-65
2021/12/15 11:39:03;;;;;;;14.02;5.40;;;14.40;56.70;;;;;;5001365;28;20076;-66
2021/12/15 11:41:39;;;;;;;6.90;4.55;;;14.50;56.70;;;;;;4997086;28;20151;-65
2021/12/15 11:44:16;;;;;;;7.97;4.50;;;14.50;56.50;;;;;;4997093;28;20073;-64
2021/12/15 11:46:51;;;;;;;17.92;4.18;;;14.60;56.30;;;;;;4996368;28;20030;-65
2021/12/15 11:49:26;;;;;;;13.35;6.95;;;14.70;56.70;;;;;;5014436;28;20045;-63
2021/12/15 11:51:56;;;;;;;14.48;5.20;;;14.70;56.50;;;;;;5013596;28;20494;-65
2021/12/15 11:54:37;;;;;;;14.07;5.22;;;14.80;56.40;;;;;;4996357;28;20053;-67
2021/12/15 11:57:25;;;;;;;12.02;5.03;;;14.80;55.80;;;;;;5014011;28;20057;-66
2021/12/15 12:00:04;;;;;;;12.55;5.28;;;14.90;56.30;;;;;;5013940;28;20471;-68
2021/12/15 12:02:33;;;;;;;12.45;4.88;;;15.00;55.80;;;;;;4996991;28;20080;-65
2021/12/15 12:05:04;;;;;;;10.55;5.13;;;15.00;56.20;;;;;;5013927;28;20411;-64
2021/12/15 12:07:41;;;;;;;14.23;5.53;;;15.10;56.30;;;;;;5014159;28;20046;-77
2021/12/15 12:10:20;;;;;;;14.10;5.00;;;15.10;56.20;;;;;;5014888;28;20022;-81
2021/12/15 12:12:58;;;;;;;13.48;5.32;;;15.20;56.00;;;;;;5011604;28;20033;-63
2021/12/15 12:15:28;;;;;;;13.73;5.32;;;15.20;56.10;;;;;;4997493;28;20036;-65
2021/12/15 12:18:00;;;;;;;14.02;5.38;;;15.30;56.30;;;;;;5013459;28;20022;-69
2021/12/15 12:20:42;;;;;;;11.98;4.78;;;15.30;56.20;;;;;;5014190;28;20030;-65
2021/12/15 12:23:11;;;;;;;10.75;4.55;;;15.40;55.90;;;;;;5013805;28;20436;-68
2021/12/15 12:25:52;;;;;;;13.32;4.63;;;15.40;56.20;;;;;;5013728;28;20065;-69
2021/12/15 12:28:24;;;;;;;9.80;4.97;;;15.50;55.90;;;;;;5013439;28;20065;-76
2021/12/15 12:31:06;;;;;;;14.32;5.43;;;15.50;55.90;;;;;;5014225;28;20105;-69
2021/12/15 12:33:33;;;;;;;9.85;5.00;;;15.60;56.00;;;;;;4997982;28;20049;-78
2021/12/15 12:36:05;;;;;;;12.20;4.82;;;15.60;55.90;;;;;;5014168;28;20014;-65
2021/12/15 12:38:34;;;;;;;6.70;3.85;;;15.70;56.30;;;;;;5013968;28;20479;-69
2021/12/15 12:41:14;;;;;;;10.80;4.40;;;15.70;56.30;;;;;;4996427;28;20387;-69
2021/12/15 12:43:53;;;;;;;9.27;4.82;;;15.70;56.30;;;;;;5013323;28;20104;-68
2021/12/15 12:46:35;;;;;;;9.48;4.65;;;15.70;56.40;;;;;;5013565;28;20037;-69
2021/12/15 13:00:41;;;;;;;12.35;4.97;;;15.90;56.40;;;;;;5013873;28;20022;-68
2021/12/15 13:03:19;;;;;;;10.52;4.50;;;15.90;56.50;;;;;;5014436;28;20223;-68
2021/12/15 13:06:02;;;;;;;6.43;4.57;;;15.90;56.60;;;;;;5018559;28;20108;-71
2021/12/15 13:08:50;;;;;;;6.75;4.35;;;15.90;57.20;;;;;;5022741;28;20105;-67
2021/12/15 13:11:39;;;;;;;8.63;4.88;;;16.00;56.60;;;;;;5025546;28;20033;-69
2021/12/15 13:14:13;;;;;;;11.68;5.15;;;16.00;56.40;;;;;;5020681;28;20049;-80
2021/12/15 13:16:58;;;;;;;6.65;4.07;;;16.00;56.50;;;;;;5015453;28;20029;-66
2021/12/15 13:19:33;;;;;;;8.38;4.97;;;16.10;56.80;;;;;;5013588;28;20026;-80
2021/12/15 13:22:21;;;;;;;8.30;4.90;;;16.00;56.70;;;;;;5013361;28;20033;-79
2021/12/15 13:31:01;;;;;;;8.98;4.32;;;16.10;57.10;;;;;;5013074;28;20053;-65
2021/12/15 13:33:34;;;;;;;10.63;4.95;;;16.10;57.10;;;;;;5013463;28;20471;-65
2021/12/15 13:36:22;;;;;;;9.52;5.03;;;16.10;57.20;;;;;;5012719;28;20037;-65
2021/12/15 13:39:10;;;;;;;7.88;3.90;;;16.10;57.20;;;;;;5012605;28;20045;-64
2021/12/15 13:44:16;;;;;;;9.05;5.28;;;16.20;57.10;;;;;;5012167;28;20034;-65
2021/12/15 13:46:45;;;;;;;14.10;5.43;;;16.20;57.00;;;;;;5012674;28;20124;-65
2021/12/15 13:49:52;;;;;;;11.48;4.57;;;16.20;57.10;;;;;;5012640;28;20022;-65
2021/12/15 13:52:36;;;;;;;11.93;4.90;;;16.20;56.80;;;;;;5001996;28;20056;-63
2021/12/15 13:55:24;;;;;;;5.10;3.05;;;16.20;57.20;;;;;;5012195;28;20038;-67
2021/12/15 13:57:58;;;;;;;18.23;6.15;;;16.30;57.00;;;;;;5011943;28;20022;-65
2021/12/15 14:00:35;;;;;;;11.50;4.88;;;16.40;56.60;;;;;;5012156;28;20365;-63
2021/12/15 14:03:19;;;;;;;11.48;5.32;;;16.30;56.40;;;;;;5012072;28;20539;-70
2021/12/15 14:06:03;;;;;;;9.02;4.90;;;16.20;56.70;;;;;;5012405;28;20100;-72
2021/12/15 14:08:47;;;;;;;7.60;4.50;;;16.20;56.80;;;;;;5012524;28;20068;-65
2021/12/15 14:11:26;;;;;;;11.95;5.22;;;16.10;57.10;;;;;;5011443;28;20033;-64
2021/12/15 14:14:26;;;;;;;10.80;4.28;;;16.00;57.00;;;;;;5013687;28;20034;-67
2021/12/15 14:17:04;;;;;;;11.60;4.80;;;15.90;57.30;;;;;;4999599;28;20026;-71
2021/12/15 14:19:36;;;;;;;10.63;5.05;;;15.80;57.50;;;;;;5017214;28;20109;-73
2021/12/15 14:22:08;;;;;;;9.68;4.75;;;15.80;57.80;;;;;;5015809;28;20026;-66
2021/12/15 14:24:36;;;;;;;13.05;3.63;;;15.70;58.00;;;;;;5015970;28;20044;-65
2021/12/15 14:27:03;;;;;;;9.00;4.88;;;15.70;58.70;;;;;;4998230;28;20013;-73
2021/12/15 14:29:31;;;;;;;11.27;5.57;;;15.60;58.40;;;;;;5015771;28;20076;-74
2021/12/15 14:31:59;;;;;;;9.68;4.88;;;15.60;58.60;;;;;;5016571;28;20028;-63
2021/12/15 14:34:34;;;;;;;10.88;5.47;;;15.60;58.70;;;;;;5016508;28;20032;-70
2021/12/15 14:37:16;;;;;;;12.60;6.13;;;15.50;58.60;;;;;;5014685;28;20109;-64
2021/12/15 14:39:51;;;;;;;9.77;5.53;;;15.50;58.70;;;;;;5015709;28;20088;-65
2021/12/15 14:42:28;;;;;;;16.75;6.20;;;15.50;59.40;;;;;;5014965;28;20400;-64
2021/12/15 14:45:00;;;;;;;11.90;4.65;;;15.50;59.70;;;;;;5015407;28;20054;-65